createdAt,value
2022-08-22T00:01:43.488Z,2.70
2022-08-22T00:03:04.186Z,2.90
2022-08-22T00:04:10.827Z,2.58
2022-08-22T00:06:38.188Z,3.15
2022-08-22T00:09:05.624Z,1.90
2022-08-22T00:11:33.024Z,2.00
2022-08-22T00:14:02.431Z,2.20
2022-08-22T00:16:29.983Z,2.00
2022-08-22T00:18:57.296Z,2.33
2022-08-22T00:21:24.579Z,2.28
2022-08-22T00:23:52.694Z,2.13
2022-08-22T00:26:21.473Z,2.28
2022-08-22T00:28:48.696Z,2.10
2022-08-22T00:31:16.085Z,1.92
2022-08-22T00:33:43.318Z,1.77
2022-08-22T00:36:10.908Z,2.15
2022-08-22T00:38:38.533Z,2.03
2022-08-22T00:41:05.852Z,2.15
2022-08-22T00:43:33.305Z,1.98
2022-08-22T00:46:00.651Z,2.13
2022-08-22T00:48:28.067Z,2.17
2022-08-22T00:50:55.709Z,2.22
2022-08-22T00:53:23.084Z,2.47
2022-08-22T00:55:50.484Z,1.77
2022-08-22T00:58:17.838Z,2.25
2022-08-22T01:00:45.166Z,2.45
2022-08-22T01:03:12.604Z,2.75
2022-08-22T01:05:40.127Z,1.77
2022-08-22T01:08:07.658Z,2.63
2022-08-22T01:10:35.210Z,1.88
2022-08-22T01:13:02.437Z,2.40
2022-08-22T01:15:29.697Z,2.33
2022-08-22T01:17:57.439Z,1.50
2022-08-22T01:20:24.849Z,1.95
2022-08-22T01:22:52.097Z,2.50
2022-08-22T01:25:22.356Z,2.22
2022-08-22T01:27:53.351Z,2.28
2022-08-22T01:30:21.875Z,1.52
2022-08-22T01:32:50.776Z,1.98
2022-08-22T01:35:24.700Z,2.00
2022-08-22T01:37:52.032Z,2.20
2022-08-22T01:40:19.465Z,2.90
2022-08-22T01:42:47.223Z,2.22
2022-08-22T01:45:14.721Z,2.13
2022-08-22T01:47:42.022Z,2.35
2022-08-22T01:50:09.308Z,2.38
2022-08-22T01:52:36.526Z,2.25
2022-08-22T01:55:03.751Z,2.72
2022-08-22T01:57:31.021Z,2.05
2022-08-22T01:59:58.380Z,2.17
2022-08-22T02:02:25.627Z,1.55
2022-08-22T02:04:52.864Z,2.13
2022-08-22T02:07:20.108Z,3.08
2022-08-22T02:09:51.486Z,2.20
2022-08-22T02:12:21.805Z,2.42
2022-08-22T02:14:49.420Z,2.10
2022-08-22T02:17:17.109Z,1.90
2022-08-22T02:19:44.478Z,2.60
2022-08-22T02:22:11.890Z,2.08
2022-08-22T02:24:39.177Z,2.33
2022-08-22T02:27:06.421Z,2.38
2022-08-22T02:29:33.904Z,2.08
2022-08-22T02:32:01.245Z,1.85
2022-08-22T02:34:28.674Z,1.95
2022-08-22T02:36:58.200Z,1.73
2022-08-22T02:39:25.668Z,2.03
2022-08-22T02:41:53.079Z,1.83
2022-08-22T02:44:20.545Z,2.25
2022-08-22T02:46:49.234Z,2.10
2022-08-22T02:49:16.518Z,2.13
2022-08-22T02:51:43.777Z,1.65
2022-08-22T02:54:11.044Z,1.75
2022-08-22T02:56:38.358Z,2.33
2022-08-22T02:59:05.590Z,2.10
2022-08-22T03:01:33.409Z,2.30
2022-08-22T03:04:00.707Z,2.22
2022-08-22T03:06:28.186Z,1.98
2022-08-22T03:08:55.439Z,2.03
2022-08-22T03:11:22.718Z,1.80
2022-08-22T03:13:50.053Z,2.10
2022-08-22T03:16:17.276Z,3.20
2022-08-22T03:18:44.575Z,2.22
2022-08-22T03:21:11.770Z,2.15
2022-08-22T03:23:39.028Z,2.00
2022-08-22T03:26:07.473Z,2.22
2022-08-22T03:28:37.166Z,2.45
2022-08-22T03:31:04.404Z,2.03
2022-08-22T03:33:31.800Z,2.13
2022-08-22T03:35:59.426Z,2.17
2022-08-22T03:38:26.636Z,2.47
2022-08-22T03:40:54.095Z,2.20
2022-08-22T03:43:21.442Z,3.05
2022-08-22T03:45:48.997Z,2.28
2022-08-22T03:48:16.469Z,3.05
2022-08-22T03:50:43.676Z,2.20
2022-08-22T03:53:18.950Z,4.10
2022-08-22T03:55:46.711Z,2.20
2022-08-22T03:58:18.466Z,2.05
2022-08-22T04:00:55.991Z,2.20
2022-08-22T04:03:24.018Z,2.10
2022-08-22T04:05:53.447Z,2.15
2022-08-22T04:08:25.570Z,2.03
2022-08-22T04:10:53.505Z,2.55
2022-08-22T04:13:21.430Z,2.35
2022-08-22T04:15:52.709Z,2.25
2022-08-22T04:18:19.933Z,1.88
2022-08-22T04:20:47.385Z,1.60
2022-08-22T04:23:14.673Z,2.53
2022-08-22T04:25:41.882Z,2.08
2022-08-22T04:28:09.258Z,3.17
2022-08-22T04:30:36.678Z,2.63
2022-08-22T04:33:04.031Z,2.50
2022-08-22T04:35:31.457Z,2.17
2022-08-22T04:37:58.803Z,2.47
2022-08-22T04:40:26.230Z,2.10
2022-08-22T04:42:53.476Z,2.75
2022-08-22T04:45:20.716Z,1.98
2022-08-22T04:47:53.916Z,2.25
2022-08-22T04:50:21.598Z,2.38
2022-08-22T04:52:48.933Z,2.35
2022-08-22T04:55:16.227Z,2.80
2022-08-22T04:57:43.526Z,1.70
2022-08-22T05:00:11.414Z,3.35
2022-08-22T05:02:38.692Z,2.50
2022-08-22T05:05:13.476Z,2.05
2022-08-22T05:07:41.401Z,1.88
2022-08-22T05:10:09.405Z,2.30
2022-08-22T05:12:39.955Z,2.13
2022-08-22T05:15:07.273Z,2.30
2022-08-22T05:17:37.112Z,2.50
2022-08-22T05:20:04.312Z,2.13
2022-08-22T05:22:31.580Z,2.50
2022-08-22T05:24:58.986Z,1.90
2022-08-22T05:27:26.236Z,1.98
2022-08-22T05:29:53.834Z,2.08
2022-08-22T05:32:21.105Z,2.17
2022-08-22T05:34:48.598Z,2.40
2022-08-22T05:37:19.075Z,2.63
2022-08-22T05:39:47.306Z,2.47
2022-08-22T05:42:14.733Z,2.17
2022-08-22T05:44:42.613Z,1.90
2022-08-22T05:47:10.287Z,2.28
2022-08-22T05:49:37.545Z,2.60
2022-08-22T05:52:04.817Z,2.13
2022-08-22T05:54:36.615Z,1.98
2022-08-22T05:57:07.440Z,2.28
2022-08-22T05:59:35.185Z,2.25
2022-08-22T06:02:02.539Z,2.47
2022-08-22T06:04:29.815Z,3.63
2022-08-22T06:06:57.095Z,2.83
2022-08-22T06:09:24.356Z,2.50
2022-08-22T06:11:54.275Z,2.20
2022-08-22T06:14:24.765Z,2.58
2022-08-22T06:16:52.365Z,2.92
2022-08-22T06:19:20.294Z,2.90
2022-08-22T06:21:48.127Z,2.65
2022-08-22T06:24:15.822Z,2.50
2022-08-22T06:26:46.061Z,2.38
2022-08-22T06:29:15.582Z,2.75
2022-08-22T06:31:42.962Z,1.90
2022-08-22T06:34:10.257Z,2.55
2022-08-22T06:36:37.469Z,2.13
2022-08-22T06:39:08.712Z,2.75
2022-08-22T06:41:36.317Z,2.08
2022-08-22T06:44:03.545Z,2.30
2022-08-22T06:46:31.083Z,2.17
2022-08-22T06:48:58.440Z,2.75
2022-08-22T06:51:27.622Z,3.10
2022-08-22T06:53:56.010Z,1.98
2022-08-22T06:56:23.371Z,2.25
2022-08-22T06:58:50.626Z,2.15
2022-08-22T07:01:17.918Z,2.17
2022-08-22T07:03:45.641Z,1.98
2022-08-22T07:06:12.884Z,1.98
2022-08-22T07:08:40.244Z,1.95
2022-08-22T07:11:08.284Z,2.28
2022-08-22T07:13:35.650Z,1.92
2022-08-22T07:16:03.125Z,2.75
2022-08-22T07:18:31.819Z,2.20
2022-08-22T07:20:59.361Z,1.90
2022-08-22T07:23:27.860Z,2.60
2022-08-22T07:25:55.227Z,2.30
2022-08-22T07:28:36.558Z,2.10
2022-08-22T07:31:05.466Z,2.35
2022-08-22T07:33:34.075Z,2.60
2022-08-22T07:36:01.602Z,2.00
2022-08-22T07:38:28.869Z,2.60
2022-08-22T07:40:56.704Z,1.95
2022-08-22T07:43:24.448Z,2.15
2022-08-22T07:45:53.037Z,2.42
2022-08-22T07:48:26.063Z,2.15
2022-08-22T07:50:53.712Z,1.98
2022-08-22T07:53:21.040Z,2.00
2022-08-22T07:55:49.909Z,1.88
2022-08-22T07:58:17.529Z,2.00
2022-08-22T08:00:44.889Z,1.50
2022-08-22T08:03:12.418Z,1.88
2022-08-22T08:05:39.967Z,2.20
2022-08-22T08:08:07.488Z,1.80
2022-08-22T08:10:35.555Z,2.42
2022-08-22T08:13:04.018Z,1.60
2022-08-22T08:15:32.173Z,2.03
2022-08-22T08:18:00.574Z,2.33
2022-08-22T08:20:28.051Z,1.58
2022-08-22T08:22:56.016Z,2.35
2022-08-22T08:25:24.675Z,1.58
2022-08-22T08:28:10.854Z,2.33
2022-08-22T08:30:38.724Z,1.90
2022-08-22T08:33:24.258Z,1.75
2022-08-22T08:36:03.031Z,2.75
2022-08-22T08:38:31.375Z,1.70
2022-08-22T08:40:58.789Z,2.35
2022-08-22T08:43:35.064Z,2.17
2022-08-22T08:46:02.539Z,1.65
2022-08-22T08:48:29.781Z,1.80
2022-08-22T08:50:57.485Z,3.40
2022-08-22T08:53:29.555Z,1.88
2022-08-22T08:55:58.767Z,2.53
2022-08-22T08:58:26.497Z,2.35
2022-08-22T09:00:53.879Z,1.83
2022-08-22T09:03:27.439Z,1.80
2022-08-22T09:05:58.618Z,1.60
2022-08-22T09:08:27.567Z,2.08
2022-08-22T09:10:55.184Z,2.10
2022-08-22T09:13:23.254Z,1.70
2022-08-22T09:15:58.541Z,1.98
2022-08-22T09:18:32.266Z,2.05
2022-08-22T09:21:01.033Z,1.70
2022-08-22T09:23:28.558Z,2.25
2022-08-22T09:25:56.202Z,1.83
2022-08-22T09:28:23.485Z,2.00
2022-08-22T09:30:56.137Z,1.85
2022-08-22T09:33:23.366Z,2.00
2022-08-22T09:35:51.837Z,2.38
2022-08-22T09:38:21.143Z,2.08
2022-08-22T09:40:48.430Z,2.03
2022-08-22T09:43:21.196Z,2.38
2022-08-22T09:45:50.211Z,2.75
2022-08-22T09:48:17.497Z,2.10
2022-08-22T09:50:45.012Z,2.35
2022-08-22T09:53:13.473Z,1.50
2022-08-22T09:55:40.920Z,1.60
2022-08-22T09:58:11.268Z,1.45
2022-08-22T10:00:40.537Z,1.90
2022-08-22T10:03:07.902Z,1.38
2022-08-22T10:05:44.284Z,1.35
2022-08-22T10:08:13.079Z,1.77
2022-08-22T10:10:40.325Z,1.25
2022-08-22T10:13:10.391Z,1.20
2022-08-22T10:15:37.980Z,1.73
2022-08-22T10:18:05.298Z,1.10
2022-08-22T10:20:32.530Z,0.70
2022-08-22T10:23:01.519Z,1.00
2022-08-22T10:25:29.177Z,1.45
2022-08-22T10:27:56.617Z,0.90
2022-08-22T10:30:24.032Z,1.15
2022-08-22T10:32:51.391Z,1.15
2022-08-22T10:35:19.170Z,1.27
2022-08-22T10:37:46.682Z,0.70
2022-08-22T10:40:17.932Z,0.95
2022-08-22T10:42:46.025Z,1.60
2022-08-22T10:45:13.744Z,1.08
2022-08-22T10:47:41.929Z,0.85
2022-08-22T10:50:10.951Z,1.15
2022-08-22T10:52:38.952Z,1.10
2022-08-22T10:55:09.874Z,1.05
2022-08-22T10:57:37.448Z,0.77
2022-08-22T11:00:05.018Z,1.25
2022-08-22T11:02:32.471Z,1.05
2022-08-22T11:04:59.802Z,1.45
2022-08-22T11:07:27.176Z,1.30
2022-08-22T11:09:56.794Z,1.10
2022-08-22T11:12:26.656Z,0.95
2022-08-22T11:15:02.958Z,1.08
2022-08-22T11:17:33.233Z,1.85
2022-08-22T11:20:05.659Z,1.70
2022-08-22T11:22:36.370Z,1.40
2022-08-22T11:25:04.882Z,1.90
2022-08-22T11:27:35.316Z,1.40
2022-08-22T11:30:06.978Z,1.00
2022-08-22T11:32:34.575Z,1.20
2022-08-22T11:35:01.982Z,1.20
2022-08-22T11:37:43.506Z,1.08
2022-08-22T11:40:11.817Z,1.00
2022-08-22T11:42:47.729Z,1.02
2022-08-22T11:45:16.421Z,1.13
2022-08-22T11:47:44.202Z,1.17
2022-08-22T11:50:13.851Z,1.98
2022-08-22T11:52:41.559Z,1.20
2022-08-22T11:55:10.069Z,1.35
2022-08-22T11:57:38.811Z,1.10
2022-08-22T12:00:13.169Z,1.30
2022-08-22T12:02:41.055Z,2.00
2022-08-22T12:05:08.760Z,1.58
2022-08-22T12:07:36.318Z,1.90
2022-08-22T12:10:03.669Z,1.60
2022-08-22T12:12:31.256Z,1.58
2022-08-22T12:14:58.920Z,2.85
2022-08-22T12:17:55.471Z,1.40
2022-08-22T12:20:17.056Z,1.27
2022-08-22T12:22:49.828Z,2.30
2022-08-22T12:25:17.373Z,1.35
2022-08-22T12:27:48.131Z,1.58
2022-08-22T12:30:17.127Z,3.30
2022-08-22T12:32:45.786Z,2.75
2022-08-22T12:35:16.486Z,1.98
2022-08-22T12:37:52.294Z,1.80
2022-08-22T12:40:20.534Z,1.60
2022-08-22T12:42:53.925Z,1.98
2022-08-22T12:45:21.346Z,1.40
2022-08-22T12:47:49.540Z,2.50
2022-08-22T12:50:16.842Z,1.30
2022-08-22T12:52:44.435Z,1.25
2022-08-22T12:55:11.827Z,1.30
2022-08-22T12:57:39.123Z,0.93
2022-08-22T13:00:06.557Z,1.10
2022-08-22T13:02:34.020Z,0.90
2022-08-22T13:05:01.626Z,1.35
2022-08-22T13:07:30.304Z,1.27
2022-08-22T13:09:57.765Z,1.10
2022-08-22T13:12:26.282Z,1.05
2022-08-22T13:14:55.097Z,0.93
2022-08-22T13:17:24.983Z,0.93
2022-08-22T13:19:52.957Z,1.52
2022-08-22T13:22:20.234Z,1.20
2022-08-22T13:24:52.650Z,0.98
2022-08-22T13:27:20.279Z,1.00
2022-08-22T13:29:47.694Z,1.10
2022-08-22T13:32:14.982Z,1.10
2022-08-22T13:34:43.559Z,1.25
2022-08-22T13:37:11.168Z,1.20
2022-08-22T13:39:38.809Z,1.10
2022-08-22T13:42:14.295Z,1.00
2022-08-22T13:44:41.947Z,0.80
2022-08-22T13:47:14.694Z,0.80
2022-08-22T13:49:42.208Z,0.98
2022-08-22T13:52:29.193Z,1.20
2022-08-22T13:54:57.017Z,1.13
2022-08-22T13:57:24.711Z,1.00
2022-08-22T13:59:57.660Z,1.20
2022-08-22T14:02:34.243Z,1.95
2022-08-22T14:05:01.848Z,1.35
2022-08-22T14:07:31.650Z,1.75
2022-08-22T14:10:02.758Z,1.10
2022-08-22T14:12:33.436Z,1.50
2022-08-22T14:15:01.535Z,2.17
2022-08-22T14:17:28.967Z,1.35
2022-08-22T14:19:59.566Z,1.45
2022-08-22T14:22:31.700Z,1.50
2022-08-22T14:24:59.762Z,2.20
2022-08-22T14:27:27.042Z,1.70
2022-08-22T14:29:55.200Z,1.60
2022-08-22T14:32:25.225Z,1.88
2022-08-22T14:34:54.096Z,1.70
2022-08-22T14:37:21.610Z,1.88
2022-08-22T14:39:49.936Z,1.67
2022-08-22T14:42:19.874Z,1.83
2022-08-22T14:44:47.617Z,1.70
2022-08-22T14:47:55.631Z,1.92
2022-08-22T14:50:09.478Z,1.30
2022-08-22T14:52:38.614Z,1.45
2022-08-22T14:55:08.672Z,2.33
2022-08-22T14:57:36.188Z,1.60
2022-08-22T15:00:11.049Z,1.75
2022-08-22T15:02:38.741Z,1.67
2022-08-22T15:05:06.000Z,1.20
2022-08-22T15:07:33.789Z,1.38
2022-08-22T15:10:03.414Z,1.88
2022-08-22T15:12:30.793Z,1.30
2022-08-22T15:14:58.073Z,1.20
2022-08-22T15:17:25.596Z,1.60
2022-08-22T15:19:52.922Z,1.58
2022-08-22T15:22:21.316Z,1.05
2022-08-22T15:24:56.307Z,1.17
2022-08-22T15:27:23.824Z,0.85
2022-08-22T15:29:51.144Z,0.88
2022-08-22T15:32:18.549Z,0.90
2022-08-22T15:34:47.630Z,1.60
2022-08-22T15:37:19.809Z,0.68
2022-08-22T15:39:47.096Z,0.80
2022-08-22T15:42:14.508Z,1.30
2022-08-22T15:44:44.228Z,1.00
2022-08-22T15:47:24.282Z,0.90
2022-08-22T15:49:55.655Z,1.20
2022-08-22T15:52:23.676Z,0.85
2022-08-22T15:55:02.289Z,1.23
2022-08-22T15:57:31.576Z,1.02
2022-08-22T15:59:59.384Z,1.13
2022-08-22T16:02:27.153Z,0.95
2022-08-22T16:04:54.506Z,1.58
2022-08-22T16:07:23.352Z,0.93
2022-08-22T16:09:53.142Z,1.17
2022-08-22T16:12:20.834Z,1.10
2022-08-22T16:14:50.024Z,1.00
2022-08-22T16:17:17.345Z,0.95
2022-08-22T16:19:44.619Z,1.30
2022-08-22T16:22:12.230Z,0.80
2022-08-22T16:24:39.634Z,0.95
2022-08-22T16:27:06.833Z,0.50
2022-08-22T16:29:35.890Z,0.80
2022-08-22T16:32:08.711Z,0.50
2022-08-22T16:34:36.665Z,0.57
2022-08-22T16:37:03.975Z,0.77
2022-08-22T16:39:31.399Z,0.77
2022-08-22T16:41:59.701Z,0.77
2022-08-22T16:44:27.050Z,0.43
2022-08-22T16:46:54.369Z,0.85
2022-08-22T16:49:21.619Z,0.63
2022-08-22T16:51:50.196Z,0.80
2022-08-22T16:54:17.597Z,0.90
2022-08-22T16:56:44.825Z,0.80
2022-08-22T16:59:22.840Z,1.02
2022-08-22T17:01:51.087Z,1.17
2022-08-22T17:04:18.378Z,1.10
2022-08-22T17:06:45.732Z,1.33
2022-08-22T17:09:14.599Z,1.30
2022-08-22T17:11:42.079Z,1.00
2022-08-22T17:14:09.586Z,1.83
2022-08-22T17:16:37.247Z,0.93
2022-08-22T17:19:05.086Z,0.85
2022-08-22T17:21:32.591Z,2.15
2022-08-22T17:23:59.893Z,0.98
2022-08-22T17:26:27.548Z,1.05
2022-08-22T17:28:54.892Z,0.95
2022-08-22T17:31:24.158Z,1.00
2022-08-22T17:33:52.284Z,1.10
2022-08-22T17:36:26.686Z,1.60
2022-08-22T17:38:55.195Z,1.25
2022-08-22T17:41:23.124Z,1.40
2022-08-22T17:43:51.024Z,1.20
2022-08-22T17:46:18.825Z,1.10
2022-08-22T17:48:48.134Z,1.50
2022-08-22T17:51:15.661Z,1.35
2022-08-22T17:53:43.011Z,1.38
2022-08-22T17:56:10.313Z,1.17
2022-08-22T17:58:43.856Z,1.30
2022-08-22T18:01:13.607Z,1.00
2022-08-22T18:03:41.006Z,1.10
2022-08-22T18:06:09.321Z,1.10
2022-08-22T18:08:38.331Z,1.00
2022-08-22T18:11:06.065Z,1.52
2022-08-22T18:13:33.791Z,1.00
2022-08-22T18:16:01.139Z,0.90
2022-08-22T18:18:31.155Z,0.75
2022-08-22T18:20:58.893Z,0.52
2022-08-22T18:23:36.324Z,0.80
2022-08-22T18:26:07.841Z,0.70
2022-08-22T18:28:35.985Z,0.73
2022-08-22T18:31:03.322Z,0.90
2022-08-22T18:33:31.023Z,0.70
2022-08-22T18:36:00.416Z,0.70
2022-08-22T18:38:29.085Z,0.70
2022-08-22T18:40:56.409Z,1.05
2022-08-22T18:43:26.196Z,0.73
2022-08-22T18:45:53.843Z,0.80
2022-08-22T18:48:21.134Z,0.90
2022-08-22T18:50:48.522Z,0.68
2022-08-22T18:53:15.896Z,1.17
2022-08-22T18:55:43.293Z,1.05
2022-08-22T18:58:10.601Z,0.82
2022-08-22T19:00:38.047Z,1.08
2022-08-22T19:03:05.425Z,0.82
2022-08-22T19:05:32.807Z,1.00
2022-08-22T19:08:00.004Z,1.38
2022-08-22T19:10:27.960Z,0.80
2022-08-22T19:12:55.547Z,1.10
2022-08-22T19:15:22.848Z,0.95
2022-08-22T19:17:55.811Z,1.27
2022-08-22T19:20:45.818Z,2.58
2022-08-22T19:23:13.387Z,4.10
2022-08-22T19:25:40.701Z,9.57
2022-08-22T19:28:11.671Z,12.38
2022-08-22T19:30:39.506Z,14.05
2022-08-22T19:33:06.947Z,7.93
2022-08-22T19:35:37.729Z,4.47
2022-08-22T19:38:05.183Z,3.28
2022-08-22T19:40:32.954Z,4.10
2022-08-22T19:43:00.362Z,3.30
2022-08-22T19:45:29.038Z,4.05
2022-08-22T19:47:56.492Z,2.90
2022-08-22T19:50:24.129Z,3.90
2022-08-22T19:52:51.588Z,2.75
2022-08-22T19:55:18.983Z,2.90
2022-08-22T19:57:46.283Z,4.80
2022-08-22T20:00:13.558Z,4.05
2022-08-22T20:02:43.854Z,2.08
2022-08-22T20:05:11.416Z,1.48
2022-08-22T20:07:38.690Z,1.50
2022-08-22T20:10:05.932Z,1.55
2022-08-22T20:12:33.882Z,1.60
2022-08-22T20:15:01.230Z,2.42
2022-08-22T20:17:30.591Z,9.27
2022-08-22T20:22:45.427Z,5.65
2022-08-22T20:25:16.885Z,2.58
2022-08-22T20:28:00.806Z,1.90
2022-08-22T20:30:28.319Z,1.30
2022-08-22T20:32:56.962Z,1.45
2022-08-22T20:35:26.303Z,4.97
2022-08-22T20:38:10.387Z,4.65
2022-08-22T20:40:56.319Z,2.20
2022-08-22T20:43:24.848Z,2.70
2022-08-22T20:45:55.473Z,2.38
2022-08-22T20:48:24.750Z,1.92
2022-08-22T20:50:52.197Z,5.30
2022-08-22T20:53:19.561Z,2.70
2022-08-22T20:55:46.812Z,1.90
2022-08-22T20:58:14.131Z,3.65
2022-08-22T21:00:41.791Z,5.70
2022-08-22T21:03:09.309Z,4.20
2022-08-22T21:05:36.868Z,5.15
2022-08-22T21:08:04.451Z,5.55
2022-08-22T21:10:51.216Z,5.60
2022-08-22T21:13:22.183Z,3.47
2022-08-22T21:15:49.895Z,3.38
2022-08-22T21:18:17.566Z,8.63
2022-08-22T21:20:44.825Z,6.82
2022-08-22T21:23:12.034Z,5.72
2022-08-22T21:25:39.501Z,3.28
2022-08-22T21:28:06.882Z,2.58
2022-08-22T21:30:34.299Z,2.45
2022-08-22T21:33:01.651Z,2.00
2022-08-22T21:35:29.149Z,1.52
2022-08-22T21:37:56.427Z,2.17
2022-08-22T21:40:24.047Z,2.85
2022-08-22T21:42:51.496Z,2.60
2022-08-22T21:45:19.032Z,2.45
2022-08-22T21:47:46.488Z,2.22
2022-08-22T21:50:13.768Z,3.33
2022-08-22T21:52:41.029Z,2.97
2022-08-22T21:55:08.267Z,1.35
2022-08-22T21:57:35.624Z,1.05
2022-08-22T22:00:03.711Z,0.80
2022-08-22T22:02:40.341Z,1.08
2022-08-22T22:05:08.269Z,0.70
2022-08-22T22:07:35.683Z,0.93
2022-08-22T22:10:02.986Z,0.70
2022-08-22T22:12:30.444Z,0.68
2022-08-22T22:14:57.981Z,0.60
2022-08-22T22:17:25.702Z,0.90
2022-08-22T22:19:53.050Z,1.17
2022-08-22T22:22:21.501Z,0.90
2022-08-22T22:24:48.813Z,1.38
2022-08-22T22:27:17.188Z,0.90
2022-08-22T22:29:44.651Z,1.05
2022-08-22T22:32:11.937Z,2.53
2022-08-22T22:34:39.451Z,3.08
2022-08-22T22:37:06.899Z,2.35
2022-08-22T22:39:34.176Z,4.38
2022-08-22T22:42:01.392Z,4.20
2022-08-22T22:44:28.847Z,3.45
2022-08-22T22:46:56.094Z,2.40
2022-08-22T22:49:23.380Z,2.15
2022-08-22T22:51:50.660Z,4.45
2022-08-22T22:54:17.924Z,3.63
2022-08-22T22:56:48.002Z,2.92
2022-08-22T22:59:15.435Z,1.52
2022-08-22T23:01:42.830Z,2.10
2022-08-22T23:04:10.765Z,3.13
2022-08-22T23:06:38.002Z,6.68
2022-08-22T23:09:05.256Z,4.82
2022-08-22T23:11:32.582Z,6.28
2022-08-22T23:13:59.889Z,4.40
2022-08-22T23:16:27.299Z,3.88
2022-08-22T23:18:54.563Z,3.70
2022-08-22T23:21:21.756Z,3.83
2022-08-22T23:23:49.172Z,4.38
2022-08-22T23:26:16.405Z,3.65
2022-08-22T23:28:43.645Z,2.20
2022-08-22T23:31:10.882Z,2.10
2022-08-22T23:33:38.143Z,1.25
2022-08-22T23:36:05.396Z,1.48
2022-08-22T23:38:32.769Z,1.00
2022-08-22T23:41:00.036Z,0.80
2022-08-22T23:43:27.336Z,0.80
2022-08-22T23:45:54.584Z,1.10
2022-08-22T23:48:21.826Z,2.35
2022-08-22T23:50:49.373Z,3.05
2022-08-22T23:53:16.652Z,2.75
2022-08-22T23:55:43.856Z,3.28
2022-08-22T23:58:11.109Z,2.50
